Time;durP1;ratioP1;P1;durP2;ratioP2;P2;SDS_P1;SDS_P2;PMS_P1;PMS_P2;Temp;Humidity;BMP_temperature;BMP_pressure;BME280_temperature;BME280_humidity;BME280_pressure;Samples;Min_cycle;Max_cycle;Signal;HPM_P1;HPM_P2
2022/11/26 00:01:45;;;;;;;26.80;11.37;;;;;;;;;;4997333;28;20162;-90
2022/11/26 00:04:18;;;;;;;13.17;8.67;;;0.80;99.90;;;;;;4998716;28;20247;-90
2022/11/26 00:06:49;;;;;;;21.70;7.53;;;0.80;99.90;;;;;;4988542;28;20202;-91
2022/11/26 00:09:51;;;;;;;;;;;;;;;;;;;;;
2022/11/26 00:12:30;;;;;;;24.73;9.93;;;0.70;99.90;;;;;;5014294;28;20182;-90
2022/11/26 00:15:02;;;;;;;8.37;6.13;;;0.70;99.90;;;;;;5001749;28;20188;-93
2022/11/26 00:17:30;;;;;;;13.47;7.53;;;;;;;;;;5002990;28;20166;-90
2022/11/26 00:20:01;;;;;;;20.70;10.53;;;0.80;99.90;;;;;;4994949;28;20196;-91
2022/11/26 00:22:53;;;;;;;;;;;;;;;;;;;;;
2022/11/26 00:25:38;;;;;;;28.47;7.83;;;0.80;99.90;;;;;;4998888;28;20228;-91
2022/11/26 00:28:34;;;;;;;10.60;7.73;;;0.80;99.90;;;;;;4981725;28;20276;-92
2022/11/26 00:31:04;;;;;;;13.93;4.53;;;0.80;99.90;;;;;;4981867;28;20361;-91
2022/11/26 00:33:45;;;;;;;;;;;;;;;;;;;;;
2022/11/26 00:36:26;;;;;;;10.90;5.87;;;0.80;99.90;;;;;;5020525;28;20185;-90
2022/11/26 00:39:11;;;;;;;18.57;7.93;;;0.90;99.90;;;;;;4999766;28;20180;-89
2022/11/26 00:41:57;;;;;;;16.60;5.23;;;0.90;99.90;;;;;;4990995;28;20190;-89
2022/11/26 00:44:34;;;;;;;;;;;;;;;;;;;;;
2022/11/26 00:47:00;;;;;;;7.23;4.70;;;;;;;;;;4997350;28;20170;-91
2022/11/26 00:49:27;;;;;;;9.20;5.30;;;;;;;;;;4979935;28;20288;-91
2022/11/26 00:51:53;;;;;;;12.10;6.23;;;;;;;;;;4963939;28;20189;-90
2022/11/26 00:54:22;;;;;;;8.77;6.53;;;0.90;99.90;;;;;;4980088;28;20218;-90
2022/11/26 00:56:54;;;;;;;14.97;6.73;;;0.90;99.90;;;;;;4979490;28;20177;-90
2022/11/26 00:59:22;;;;;;;11.47;5.63;;;0.90;99.90;;;;;;4979419;28;20608;-91
2022/11/26 01:01:49;;;;;;;13.60;5.17;;;;;;;;;;4979831;28;20208;-91
2022/11/26 01:04:15;;;;;;;17.07;8.30;;;;;;;;;;4979536;28;20224;-91
2022/11/26 01:06:50;;;;;;;10.17;6.20;;;0.90;99.90;;;;;;4963550;28;20284;-91
2022/11/26 01:09:22;;;;;;;7.30;5.07;;;0.90;99.90;;;;;;4979836;28;20515;-93
2022/11/26 01:11:52;;;;;;;11.63;6.17;;;0.90;99.90;;;;;;4963597;28;20737;-93
2022/11/26 01:14:25;;;;;;;5.13;4.30;;;0.90;99.90;;;;;;4964417;28;20196;-92
2022/11/26 01:17:07;;;;;;;;;;;;;;;;;;;;;
2022/11/26 01:19:35;;;;;;;13.40;8.60;;;;;;;;;;4981443;28;20564;-92
2022/11/26 01:22:20;;;;;;;8.80;5.20;;;1.00;99.90;;;;;;4979713;28;20206;-92
2022/11/26 01:24:48;;;;;;;9.17;5.20;;;;;;;;;;4980044;28;20181;-92
2022/11/26 01:27:14;;;;;;;7.10;5.87;;;1.00;99.90;;;;;;4979334;28;20240;-91
2022/11/26 01:29:45;;;;;;;10.17;5.10;;;0.80;99.90;;;;;;4979039;28;20719;-91
2022/11/26 01:32:16;;;;;;;24.07;8.43;;;;;;;;;;4979089;28;20182;-92
2022/11/26 01:34:47;;;;;;;22.13;6.17;;;1.00;99.90;;;;;;4979326;28;20189;-91
2022/11/26 01:37:13;;;;;;;18.23;6.03;;;;;;;;;;4963711;28;20196;-92
2022/11/26 01:39:47;;;;;;;16.47;7.63;;;;;;;;;;4996318;28;20174;-91
2022/11/26 01:42:16;;;;;;;12.50;7.57;;;;;;;;;;4978989;28;20182;-91
2022/11/26 01:44:46;;;;;;;20.93;5.93;;;1.00;99.90;;;;;;4978797;28;20178;-91
2022/11/26 01:47:41;;;;;;;;;;;;;;;;;;;;;
2022/11/26 01:50:39;;;;;;;12.27;5.77;;;1.00;99.90;;;;;;4981566;28;20209;-91
2022/11/26 01:54:15;;;;;;;7.80;4.77;;;1.00;99.90;;;;;;4979120;28;20639;-91
2022/11/26 01:56:52;;;;;;;10.67;4.43;;;1.00;99.90;;;;;;4907649;28;20200;-91
2022/11/26 01:59:32;;;;;;;12.13;7.60;;;1.00;99.90;;;;;;4978721;28;20201;-92
2022/11/26 02:02:08;;;;;;;9.30;5.53;;;1.00;99.90;;;;;;4978913;28;20184;-92
2022/11/26 02:04:47;;;;;;;10.07;6.83;;;1.00;99.90;;;;;;4979124;28;20166;-91
2022/11/26 02:07:16;;;;;;;14.60;8.80;;;;;;;;;;4978615;28;20220;-93
2022/11/26 02:10:19;;;;;;;19.80;5.87;;;1.00;99.90;;;;;;4978375;28;20211;-93
2022/11/26 02:12:45;;;;;;;10.53;3.93;;;;;;;;;;4979167;28;20327;-92
2022/11/26 02:15:14;;;;;;;17.03;7.07;;;;;;;;;;4978597;28;20227;-92
2022/11/26 02:18:02;;;;;;;15.33;8.97;;;0.90;99.90;;;;;;4978552;28;20182;-91
2022/11/26 02:20:43;;;;;;;13.33;6.10;;;1.00;99.90;;;;;;4978648;28;20170;-92
2022/11/26 02:23:51;;;;;;;9.20;6.57;;;1.00;99.90;;;;;;4979172;28;20185;-92
2022/11/26 02:30:11;;;;;;;;;;;;;;;;;;;;;
2022/11/26 02:46:36;;;;;;;14.90;6.40;;;1.10;99.90;;;;;;4917527;29;20239;-92
2022/11/26 02:56:15;;;;;;;8.83;6.20;;;1.10;99.90;;;;;;4917667;28;20197;-93
2022/11/26 03:09:19;;;;;;;;;;;;;;;;;;;;;
2022/11/26 03:19:42;;;;;;;;;;;;;;;;;;;;;
2022/11/26 04:28:03;;;;;;;3.47;3.20;;;1.10;99.90;;;;;;4896431;29;20590;-93
2022/11/26 04:30:34;;;;;;;15.07;5.97;;;1.20;99.90;;;;;;4916358;29;20307;-93
2022/11/26 04:33:41;;;;;;;8.57;5.93;;;1.10;99.90;;;;;;4916913;29;20194;-93
2022/11/26 04:36:45;;;;;;;3.07;2.80;;;1.10;99.90;;;;;;4901527;29;20213;-92
2022/11/26 04:39:25;;;;;;;9.47;5.10;;;1.10;99.90;;;;;;4909655;29;20219;-93
2022/11/26 04:42:00;;;;;;;6.37;5.03;;;1.10;99.90;;;;;;4900319;29;20512;-92
2022/11/26 04:44:38;;;;;;;23.90;6.93;;;1.20;99.90;;;;;;4931215;29;20573;-93
2022/11/26 05:05:26;;;;;;;;;;;;;;;;;;;;;
2022/11/26 05:12:28;;;;;;;;;;;;;;;;;;;;;
2022/11/26 05:15:43;;;;;;;8.33;4.77;;;1.30;99.90;;;;;;4720574;30;20594;-94
2022/11/26 05:18:57;;;;;;;26.50;8.10;;;1.30;99.90;;;;;;4700028;30;20207;-93
2022/11/26 05:22:43;;;;;;;12.03;5.17;;;1.30;99.90;;;;;;4709556;30;20208;-95
2022/11/26 05:56:01;;;;;;;19.80;8.30;;;1.20;99.90;;;;;;5389490;23;20266;-91
2022/11/26 05:59:39;;;;;;;;;;;;;;;;;;;;;
2022/11/26 06:02:13;;;;;;;;;;;;;;;;;;;;;
2022/11/26 06:05:29;;;;;;;;;;;;;;;;;;;;;
2022/11/26 06:12:10;;;;;;;;;;;;;;;;;;;;;
2022/11/26 06:15:19;;;;;;;;;;;;;;;;;;;;;
2022/11/26 06:18:23;;;;;;;;;;;;;;;;;;;;;
2022/11/26 06:38:50;;;;;;;16.53;4.77;;;1.40;99.90;;;;;;4817147;29;20730;-89
2022/11/26 06:48:20;;;;;;;8.40;5.97;;;;;;;;;;4823260;29;20234;-89
2022/11/26 06:51:16;;;;;;;;;;;;;;;;;;;;;
2022/11/26 06:53:48;;;;;;;24.53;7.00;;;;;;;;;;4946116;28;20203;-90
2022/11/26 06:59:31;;;;;;;15.00;5.40;;;2.40;99.90;;;;;;4939435;28;20286;-91
2022/11/26 07:02:00;;;;;;;25.17;5.67;;;;;;;;;;4951496;28;20329;-91
2022/11/26 07:04:57;;;;;;;14.10;5.93;;;1.50;99.90;;;;;;4953633;28;20717;-91
2022/11/26 07:11:59;;;;;;;23.00;7.90;;;1.60;99.90;;;;;;4874154;29;20248;-94
2022/11/26 07:28:54;;;;;;;8.30;6.50;;;1.80;99.90;;;;;;4681579;30;20210;-93
2022/11/26 07:31:42;;;;;;;32.53;5.93;;;1.80;99.90;;;;;;4683688;30;20249;-92
2022/11/26 07:34:13;;;;;;;23.90;6.53;;;1.80;99.90;;;;;;4760289;29;20802;-90
2022/11/26 07:36:50;;;;;;;16.83;6.43;;;1.80;99.90;;;;;;4819190;29;20207;-91
2022/11/26 07:39:53;;;;;;;;;;;;;;;;;;;;;
2022/11/26 07:42:31;;;;;;;19.27;8.03;;;1.80;99.90;;;;;;4912716;29;20195;-90
2022/11/26 07:45:02;;;;;;;35.23;8.80;;;;;;;;;;4898628;29;20199;-90
2022/11/26 07:47:38;;;;;;;28.57;7.33;;;1.80;99.90;;;;;;4894352;29;20672;-90
2022/11/26 07:50:14;;;;;;;10.73;6.90;;;1.80;99.90;;;;;;4894123;29;20245;-90
2022/11/26 07:52:40;;;;;;;7.00;4.20;;;;;;;;;;4918854;28;20629;-89
2022/11/26 07:55:27;;;;;;;26.97;6.83;;;1.80;99.90;;;;;;4962751;28;20777;-90
2022/11/26 07:58:47;;;;;;;;;;;;;;;;;;;;;
2022/11/26 08:02:32;;;;;;;20.83;8.43;;;1.80;99.90;;;;;;4949088;29;20278;-92
2022/11/26 08:04:41;;;;;;;15.87;6.40;;;;;;;;;;4933502;29;20206;-90
2022/11/26 08:07:07;;;;;;;17.97;7.80;;;;;;;;;;4919276;29;20314;-92
2022/11/26 08:09:43;;;;;;;25.90;8.60;;;1.80;99.90;;;;;;4944042;29;20195;-90
2022/11/26 08:12:09;;;;;;;17.00;6.30;;;;;;;;;;4922445;29;20198;-89
2022/11/26 08:14:35;;;;;;;17.63;6.83;;;;;;;;;;4924782;29;20200;-90
2022/11/26 08:17:01;;;;;;;29.03;8.50;;;;;;;;;;4926510;29;20277;-92
2022/11/26 08:19:32;;;;;;;31.60;9.90;;;1.90;99.90;;;;;;4924420;29;20191;-90
2022/11/26 08:22:09;;;;;;;;;;;;;;;;;;;;;
2022/11/26 08:24:39;;;;;;;14.80;7.13;;;1.90;99.90;;;;;;4940194;29;20640;-94
2022/11/26 08:27:18;;;;;;;16.93;5.67;;;1.90;99.90;;;;;;4942133;29;20692;-94
2022/11/26 08:29:48;;;;;;;20.93;8.63;;;;;;;;;;4925980;29;20219;-94
2022/11/26 08:32:24;;;;;;;19.60;7.50;;;1.90;99.90;;;;;;4922931;29;20206;-93
2022/11/26 08:34:59;;;;;;;19.23;7.10;;;2.00;99.90;;;;;;4922192;29;20307;-94
2022/11/26 08:37:52;;;;;;;24.77;9.03;;;2.00;99.90;;;;;;4958724;29;20925;-92
2022/11/26 08:40:20;;;;;;;32.83;11.47;;;2.00;99.90;;;;;;4943718;28;20254;-92
2022/11/26 08:42:48;;;;;;;15.83;7.00;;;2.00;99.90;;;;;;4919903;29;20184;-92
2022/11/26 08:45:24;;;;;;;9.70;7.17;;;;;;;;;;4918598;29;20611;-94
2022/11/26 08:48:41;;;;;;;31.57;6.27;;;2.00;99.90;;;;;;4917003;29;20655;-93
2022/11/26 08:55:19;;;;;;;17.90;8.20;;;2.00;99.90;;;;;;4924627;29;20192;-94
2022/11/26 08:58:21;;;;;;;;;;;;;;;;;;;;;
2022/11/26 09:01:10;;;;;;;33.13;7.60;;;2.00;99.90;;;;;;4958794;28;20198;-94
2022/11/26 09:08:10;;;;;;;;;;;;;;;;;;;;;
2022/11/26 09:14:19;;;;;;;;;;;;;;;;;;;;;
2022/11/26 09:28:06;;;;;;;12.70;6.97;;;2.00;99.90;;;;;;4921304;28;20175;-94
2022/11/26 09:38:21;;;;;;;;;;;;;;;;;;;;;
2022/11/26 09:41:26;;;;;;;26.90;9.13;;;2.10;99.90;;;;;;4862112;29;20205;-92
2022/11/26 09:44:24;;;;;;;27.27;10.10;;;2.20;99.90;;;;;;4855287;29;20225;-92
2022/11/26 09:50:34;;;;;;;19.07;7.30;;;2.20;99.90;;;;;;4912719;29;20234;-92
2022/11/26 09:54:11;;;;;;;15.50;7.03;;;2.20;99.90;;;;;;4884842;29;20178;-94
2022/11/26 09:57:10;;;;;;;14.53;7.17;;;2.10;99.90;;;;;;4847702;29;20279;-94
2022/11/26 09:59:50;;;;;;;20.77;7.87;;;2.20;99.90;;;;;;4829982;29;20210;-90
2022/11/26 10:02:16;;;;;;;26.47;11.30;;;;;;;;;;4841910;29;20206;-90
2022/11/26 10:08:29;;;;;;;20.13;7.23;;;2.20;99.90;;;;;;4968663;28;20211;-92
2022/11/26 10:24:06;;;;;;;23.00;7.93;;;2.30;99.90;;;;;;5537149;23;20235;-95
2022/11/26 10:35:02;;;;;;;20.40;7.33;;;2.30;99.90;;;;;;5014028;23;20252;-94
2022/11/26 10:37:47;;;;;;;12.93;6.37;;;2.20;99.90;;;;;;4983166;28;20202;-92
2022/11/26 10:40:28;;;;;;;24.50;7.90;;;2.10;99.90;;;;;;4955158;28;20196;-94
2022/11/26 10:43:09;;;;;;;26.07;8.10;;;2.20;99.90;;;;;;4970903;28;20171;-95
2022/11/26 10:45:44;;;;;;;20.90;8.30;;;2.20;99.90;;;;;;4967388;28;20191;-93
2022/11/26 10:49:10;;;;;;;16.60;8.70;;;2.20;99.90;;;;;;4973548;28;20198;-92
2022/11/26 10:51:53;;;;;;;28.97;10.63;;;2.20;99.90;;;;;;4924933;29;20203;-92
2022/11/26 10:55:06;;;;;;;26.13;8.07;;;2.20;99.90;;;;;;4927080;28;20229;-91
2022/11/26 10:57:46;;;;;;;;;;;;;;;;;;;;;
2022/11/26 11:10:39;;;;;;;14.17;7.57;;;2.20;99.90;;;;;;4921274;29;20218;-93
2022/11/26 11:13:15;;;;;;;24.50;9.90;;;2.20;99.90;;;;;;4949464;28;20227;-87
2022/11/26 11:15:44;;;;;;;27.70;10.37;;;;;;;;;;4944679;28;20645;-87
2022/11/26 11:18:34;;;;;;;25.67;9.40;;;2.40;99.90;;;;;;4971225;28;20284;-92
2022/11/26 11:21:36;;;;;;;;;;;;;;;;;;;;;
2022/11/26 11:24:24;;;;;;;29.10;10.33;;;2.30;99.90;;;;;;4968076;28;20696;-91
2022/11/26 11:27:09;;;;;;;;;;;;;;;;;;;;;
2022/11/26 11:29:38;;;;;;;26.53;9.33;;;2.40;99.90;;;;;;4967922;28;20171;-86
2022/11/26 11:32:26;;;;;;;30.13;9.47;;;2.40;99.90;;;;;;4969091;28;20190;-87
2022/11/26 11:34:52;;;;;;;30.20;8.00;;;;;;;;;;4984857;28;20232;-92
2022/11/26 11:37:22;;;;;;;37.53;10.17;;;2.50;99.90;;;;;;4981355;28;20241;-90
2022/11/26 11:40:32;;;;;;;;;;;;;;;;;;;;;
2022/11/26 11:43:16;;;;;;;23.17;9.17;;;2.50;99.90;;;;;;4972038;28;20285;-93
2022/11/26 11:46:06;;;;;;;28.30;9.23;;;2.40;99.90;;;;;;4971903;28;20183;-91
2022/11/26 11:48:42;;;;;;;;;;;;;;;;;;;;;
2022/11/26 11:51:32;;;;;;;19.30;7.60;;;2.40;99.90;;;;;;4987759;28;20245;-88
2022/11/26 11:54:21;;;;;;;29.00;9.57;;;2.50;99.90;;;;;;4977829;28;20261;-89
2022/11/26 11:57:00;;;;;;;24.27;10.70;;;2.50;99.90;;;;;;4973515;28;20183;-92
2022/11/26 12:00:18;;;;;;;18.77;7.73;;;2.50;99.90;;;;;;4970699;28;20186;-93
2022/11/26 12:06:31;;;;;;;;;;;;;;;;;;;;;
2022/11/26 12:09:50;;;;;;;19.27;8.30;;;2.40;99.90;;;;;;4979879;28;20285;-93
2022/11/26 12:12:43;;;;;;;;;;;;;;;;;;;;;
2022/11/26 12:15:50;;;;;;;9.87;6.93;;;2.50;99.90;;;;;;4980319;28;20235;-92
2022/11/26 12:19:06;;;;;;;;;;;;;;;;;;;;;
2022/11/26 12:22:03;;;;;;;8.20;4.33;;;2.50;99.90;;;;;;4965194;28;20202;-91
2022/11/26 12:25:06;;;;;;;21.73;9.10;;;2.50;99.90;;;;;;4963463;28;20178;-93
2022/11/26 12:28:10;;;;;;;16.47;7.23;;;2.50;99.90;;;;;;4969357;28;20194;-91
2022/11/26 12:31:06;;;;;;;32.67;12.33;;;2.50;99.90;;;;;;4969113;28;20601;-90
2022/11/26 12:33:40;;;;;;;31.97;11.27;;;2.50;99.90;;;;;;4975043;28;20489;-92
2022/11/26 12:36:25;;;;;;;31.10;10.03;;;2.50;99.90;;;;;;4975395;28;20199;-88
2022/11/26 12:39:22;;;;;;;15.57;8.87;;;2.50;99.90;;;;;;4965857;28;20281;-90
2022/11/26 12:42:31;;;;;;;15.93;6.43;;;2.50;99.90;;;;;;4953328;28;20209;-91
2022/11/26 12:45:27;;;;;;;24.03;10.30;;;2.50;99.90;;;;;;4963208;28;20197;-90
2022/11/26 12:48:10;;;;;;;;;;;;;;;;;;;;;
2022/11/26 12:50:49;;;;;;;18.87;9.83;;;2.50;99.90;;;;;;4989493;28;20241;-91
2022/11/26 12:53:32;;;;;;;21.40;10.17;;;2.50;99.90;;;;;;4985616;28;20187;-91
2022/11/26 12:56:47;;;;;;;;;;;;;;;;;;;;;
2022/11/26 12:59:31;;;;;;;22.80;7.33;;;2.50;99.90;;;;;;5073546;23;20273;-91
2022/11/26 13:02:00;;;;;;;36.83;12.00;;;;;;;;;;4989965;28;20199;-93
2022/11/26 13:04:27;;;;;;;29.03;9.40;;;2.50;99.90;;;;;;4985309;28;20188;-92
2022/11/26 13:07:29;;;;;;;13.57;7.80;;;2.50;99.90;;;;;;4992520;28;20182;-92
2022/11/26 13:09:57;;;;;;;18.00;9.70;;;;;;;;;;4984403;28;20212;-94
2022/11/26 13:13:02;;;;;;;16.70;7.83;;;2.40;99.90;;;;;;4984111;28;20178;-91
2022/11/26 13:16:22;;;;;;;22.17;10.77;;;2.40;99.90;;;;;;4995058;28;20253;-92
2022/11/26 13:19:26;;;;;;;;;;;;;;;;;;;;;
2022/11/26 13:22:28;;;;;;;28.03;13.70;;;2.40;99.90;;;;;;4982223;28;20215;-93
2022/11/26 13:24:56;;;;;;;19.77;9.53;;;;;;;;;;4984676;28;20201;-93
2022/11/26 13:27:24;;;;;;;22.93;7.07;;;;;;;;;;4969636;28;20183;-91
2022/11/26 13:29:53;;;;;;;17.40;8.87;;;;;;;;;;4975986;28;20187;-93
2022/11/26 13:32:40;;;;;;;26.77;9.07;;;2.40;99.90;;;;;;4967089;28;20187;-94
2022/11/26 13:35:43;;;;;;;20.57;9.80;;;2.40;99.90;;;;;;4986195;28;20199;-92
2022/11/26 13:38:56;;;;;;;19.80;9.47;;;2.40;99.90;;;;;;4947456;28;20285;-92
2022/11/26 13:42:07;;;;;;;;;;;;;;;;;;;;;
2022/11/26 13:44:57;;;;;;;25.50;11.23;;;2.40;99.90;;;;;;4973809;28;20275;-93
2022/11/26 13:47:40;;;;;;;23.13;9.63;;;2.40;99.90;;;;;;4967584;28;20245;-94
2022/11/26 13:50:32;;;;;;;21.63;8.90;;;2.40;99.90;;;;;;4974467;28;20560;-91
2022/11/26 13:53:14;;;;;;;22.90;7.43;;;2.40;99.90;;;;;;4967434;28;20182;-92
2022/11/26 13:56:14;;;;;;;;;;;;;;;;;;;;;
2022/11/26 13:59:22;;;;;;;24.57;11.50;;;2.50;99.90;;;;;;4972500;28;20222;-92
2022/11/26 14:01:48;;;;;;;31.03;9.40;;;;;;;;;;4959771;28;20241;-93
2022/11/26 14:04:25;;;;;;;23.53;10.67;;;2.50;99.90;;;;;;4966735;28;20214;-90
2022/11/26 14:07:22;;;;;;;23.37;12.13;;;2.50;99.90;;;;;;4969194;28;20178;-90
2022/11/26 14:10:35;;;;;;;21.93;11.50;;;2.50;99.90;;;;;;4934147;28;20196;-89
2022/11/26 14:13:06;;;;;;;44.60;11.27;;;;;;;;;;4969484;28;20243;-91
2022/11/26 14:16:05;;;;;;;31.90;13.87;;;2.50;99.90;;;;;;4957968;28;20696;-91
2022/11/26 14:19:12;;;;;;;19.83;11.23;;;2.50;99.90;;;;;;4966397;28;20620;-91
2022/11/26 14:22:02;;;;;;;23.43;9.40;;;2.50;99.90;;;;;;4981849;28;20212;-91
2022/11/26 14:25:01;;;;;;;48.90;13.07;;;2.50;99.90;;;;;;4935653;28;20242;-91
2022/11/26 14:27:43;;;;;;;40.43;14.67;;;2.50;99.90;;;;;;4962492;28;20226;-91
2022/11/26 14:33:46;;;;;;;;;;;;;;;;;;;;;
2022/11/26 14:37:08;;;;;;;22.03;11.80;;;2.30;99.90;;;;;;4966080;28;20519;-90
2022/11/26 14:39:41;;;;;;;27.67;12.53;;;2.20;99.90;;;;;;4897530;28;20188;-91
2022/11/26 14:42:39;;;;;;;33.27;13.50;;;2.20;99.90;;;;;;4945692;28;20186;-91
2022/11/26 14:45:07;;;;;;;42.57;11.63;;;2.20;99.90;;;;;;4963892;28;20186;-92
2022/11/26 14:51:04;;;;;;;21.00;8.73;;;2.10;99.90;;;;;;4970380;28;20293;-90
2022/11/26 14:53:39;;;;;;;21.33;7.93;;;2.10;99.90;;;;;;4966502;28;20204;-92
2022/11/26 14:56:27;;;;;;;51.67;12.23;;;2.10;99.90;;;;;;4962697;28;20177;-91
2022/11/26 14:59:20;;;;;;;60.10;13.73;;;2.10;99.90;;;;;;4961244;28;20223;-92
2022/11/26 15:01:52;;;;;;;33.53;11.33;;;2.00;99.90;;;;;;4964834;28;20179;-91
2022/11/26 15:04:44;;;;;;;;;;;;;;;;;;;;;
2022/11/26 15:07:43;;;;;;;33.23;12.10;;;1.80;99.90;;;;;;4964032;28;20610;-91
2022/11/26 15:10:40;;;;;;;62.63;17.47;;;1.90;99.90;;;;;;4967752;28;20202;-93
2022/11/26 15:13:29;;;;;;;;;;;;;;;;;;;;;
2022/11/26 15:16:43;;;;;;;;;;;;;;;;;;;;;
2022/11/26 15:19:33;;;;;;;37.93;10.07;;;1.90;99.90;;;;;;4969815;28;20265;-93
2022/11/26 15:22:06;;;;;;;27.43;12.50;;;1.90;99.90;;;;;;4965583;28;20716;-93
2022/11/26 15:24:45;;;;;;;38.90;13.97;;;1.80;99.90;;;;;;4966923;28;20179;-92
2022/11/26 15:27:36;;;;;;;22.53;9.67;;;1.80;99.90;;;;;;4946549;28;20220;-93
2022/11/26 15:30:29;;;;;;;20.70;11.60;;;1.80;99.90;;;;;;4967177;28;20270;-92
2022/11/26 15:33:10;;;;;;;16.57;8.80;;;1.80;99.90;;;;;;4972331;28;20188;-92
2022/11/26 15:35:56;;;;;;;;;;;;;;;;;;;;;
2022/11/26 15:38:30;;;;;;;34.20;13.37;;;1.60;99.90;;;;;;4969159;28;20183;-93
2022/11/26 15:41:19;;;;;;;19.77;8.77;;;1.60;99.90;;;;;;4969664;28;20184;-91
2022/11/26 15:44:24;;;;;;;;;;;;;;;;;;;;;
2022/11/26 15:46:54;;;;;;;20.70;7.80;;;1.60;99.90;;;;;;4975362;28;20303;-89
2022/11/26 15:49:29;;;;;;;24.97;11.07;;;1.60;99.90;;;;;;4957455;28;20183;-90
2022/11/26 15:52:12;;;;;;;26.67;8.63;;;1.50;99.90;;;;;;4970375;28;20204;-88
2022/11/26 15:54:47;;;;;;;24.20;9.40;;;1.50;99.90;;;;;;4968339;28;20178;-88
2022/11/26 15:57:32;;;;;;;37.67;9.53;;;1.50;99.90;;;;;;4966303;28;20793;-91
2022/11/26 16:00:25;;;;;;;32.53;11.70;;;1.50;99.90;;;;;;4964220;28;20187;-93
2022/11/26 16:02:57;;;;;;;18.87;8.27;;;1.50;99.90;;;;;;4974080;28;20659;-91
2022/11/26 16:05:36;;;;;;;19.17;8.77;;;1.50;99.90;;;;;;4957386;28;20190;-88
2022/11/26 16:08:29;;;;;;;18.33;8.83;;;1.50;99.90;;;;;;4953573;28;20186;-89
2022/11/26 16:11:04;;;;;;;22.60;11.03;;;1.50;99.90;;;;;;4947222;28;20211;-89
2022/11/26 16:13:41;;;;;;;14.03;9.07;;;1.50;99.90;;;;;;4983329;28;20174;-91
2022/11/26 16:16:16;;;;;;;17.30;9.70;;;1.50;99.90;;;;;;4964946;28;20163;-94
2022/11/26 16:18:58;;;;;;;36.87;9.87;;;1.50;99.90;;;;;;4974750;28;20246;-89
2022/11/26 16:21:30;;;;;;;25.60;9.33;;;1.50;99.90;;;;;;4976069;28;20191;-91
2022/11/26 16:24:38;;;;;;;22.13;10.83;;;1.60;99.90;;;;;;4964218;28;20181;-89
2022/11/26 16:27:16;;;;;;;23.03;10.50;;;1.60;99.90;;;;;;4924508;28;20188;-92
2022/11/26 16:29:43;;;;;;;20.27;8.03;;;;;;;;;;4923461;29;20184;-90
2022/11/26 16:32:10;;;;;;;20.60;8.57;;;;;;;;;;4956845;28;20227;-91
2022/11/26 16:34:36;;;;;;;26.60;9.07;;;;;;;;;;4977095;28;20246;-91
2022/11/26 16:37:22;;;;;;;28.00;11.97;;;1.50;99.90;;;;;;4974880;28;20181;-91
2022/11/26 16:39:50;;;;;;;25.50;11.00;;;1.40;99.90;;;;;;4972408;28;20201;-90
2022/11/26 16:42:21;;;;;;;48.17;15.00;;;1.30;99.90;;;;;;4971263;28;20162;-90
2022/11/26 16:45:04;;;;;;;33.03;15.70;;;1.30;99.90;;;;;;4955422;28;20175;-87
2022/11/26 16:47:46;;;;;;;33.57;12.80;;;1.30;99.90;;;;;;4940117;28;20189;-89
2022/11/26 16:50:25;;;;;;;8.47;6.07;;;1.30;99.90;;;;;;4949893;28;20296;-88
2022/11/26 16:52:54;;;;;;;28.90;10.20;;;1.30;99.90;;;;;;4967368;28;20298;-89
2022/11/26 16:55:28;;;;;;;15.77;7.87;;;1.20;99.90;;;;;;4951245;28;20327;-87
2022/11/26 16:57:56;;;;;;;23.83;8.60;;;1.20;99.90;;;;;;4956194;28;20238;-87
2022/11/26 17:00:24;;;;;;;39.47;13.37;;;1.20;99.90;;;;;;4967272;28;20222;-87
2022/11/26 17:02:51;;;;;;;18.03;7.47;;;;;;;;;;4971584;28;20215;-86
2022/11/26 17:05:19;;;;;;;20.40;10.73;;;1.10;99.90;;;;;;4970579;28;20193;-87
2022/11/26 17:07:45;;;;;;;34.90;12.63;;;;;;;;;;4970798;28;20182;-86
2022/11/26 17:10:27;;;;;;;45.90;14.77;;;1.10;99.90;;;;;;4969542;28;20568;-89
2022/11/26 17:12:53;;;;;;;26.80;10.67;;;;;;;;;;4970165;28;20441;-87
2022/11/26 17:15:21;;;;;;;15.10;6.10;;;1.10;99.90;;;;;;4968594;28;20183;-87
2022/11/26 17:17:55;;;;;;;28.17;10.43;;;0.60;99.90;;;;;;4971759;28;20545;-89
2022/11/26 17:23:34;;;;;;;;;;;;;;;;;;;;;
2022/11/26 17:26:23;;;;;;;25.73;7.63;;;0.90;99.90;;;;;;4989244;28;20166;-90
2022/11/26 17:32:10;;;;;;;15.60;6.37;;;0.90;99.90;;;;;;5010613;28;20229;-93
2022/11/26 17:34:38;;;;;;;26.27;9.10;;;;;;;;;;4972820;28;20249;-90
2022/11/26 17:37:14;;;;;;;12.13;9.53;;;0.90;99.90;;;;;;4974967;28;20797;-89
2022/11/26 17:39:47;;;;;;;10.97;6.80;;;0.90;99.90;;;;;;4980384;28;20538;-91
2022/11/26 17:42:27;;;;;;;7.27;5.57;;;0.90;99.90;;;;;;4996878;28;20195;-90
2022/11/26 17:45:16;;;;;;;22.67;6.23;;;0.90;99.90;;;;;;4970142;28;20193;-90
2022/11/26 17:47:55;;;;;;;20.93;8.37;;;0.90;99.90;;;;;;4992064;28;20206;-91
2022/11/26 17:50:28;;;;;;;13.70;8.63;;;0.90;99.90;;;;;;4958526;28;20273;-91
2022/11/26 17:53:22;;;;;;;14.93;9.03;;;0.90;99.90;;;;;;4969853;28;20208;-91
2022/11/26 17:55:48;;;;;;;11.63;7.00;;;;;;;;;;4959262;28;20193;-90
2022/11/26 17:58:33;;;;;;;;;;;;;;;;;;;;;
2022/11/26 18:01:00;;;;;;;18.87;8.53;;;;;;;;;;4961056;28;20193;-90
2022/11/26 18:03:26;;;;;;;14.70;7.27;;;;;;;;;;4968313;28;20766;-90
2022/11/26 18:05:52;;;;;;;16.33;9.57;;;;;;;;;;4954397;28;20182;-91
2022/11/26 18:08:23;;;;;;;16.10;7.37;;;;;;;;;;4965828;28;20182;-89
2022/11/26 18:10:49;;;;;;;23.70;8.37;;;;;;;;;;4967626;28;20202;-88
2022/11/26 18:13:15;;;;;;;8.00;5.87;;;;;;;;;;4964071;28;20195;-89
2022/11/26 18:15:41;;;;;;;8.07;5.13;;;;;;;;;;4966057;28;20526;-86
2022/11/26 18:18:07;;;;;;;16.07;6.63;;;;;;;;;;4966823;28;20814;-88
2022/11/26 18:20:34;;;;;;;11.80;7.73;;;;;;;;;;4970931;28;20217;-88
2022/11/26 18:23:13;;;;;;;;;;;;;;;;;;;;;
2022/11/26 18:25:39;;;;;;;9.90;7.27;;;;;;;;;;4968535;28;20206;-89
2022/11/26 18:28:16;;;;;;;;;;;;;;;;;;;;;
2022/11/26 18:30:49;;;;;;;27.80;9.27;;;0.90;99.90;;;;;;4978275;28;20201;-91
2022/11/26 18:33:15;;;;;;;11.20;5.67;;;;;;;;;;4956597;28;20194;-90
2022/11/26 18:35:44;;;;;;;23.90;7.70;;;0.90;99.90;;;;;;4969297;28;20628;-89
2022/11/26 18:38:12;;;;;;;14.80;8.57;;;;;;;;;;4965812;28;20190;-89
2022/11/26 18:40:38;;;;;;;10.20;5.83;;;;;;;;;;4966139;28;20191;-90
2022/11/26 18:43:13;;;;;;;16.60;7.27;;;0.90;99.90;;;;;;4969614;28;20194;-91
2022/11/26 18:45:43;;;;;;;16.53;7.03;;;0.80;99.90;;;;;;4969979;28;20185;-89
2022/11/26 18:48:09;;;;;;;25.53;9.63;;;;;;;;;;4957194;28;20636;-88
2022/11/26 18:50:37;;;;;;;16.63;8.07;;;;;;;;;;4974526;28;20209;-89
2022/11/26 18:53:03;;;;;;;22.83;5.60;;;;;;;;;;4974622;28;20272;-88
2022/11/26 18:55:29;;;;;;;10.70;5.90;;;;;;;;;;4958573;28;20189;-87
2022/11/26 18:57:55;;;;;;;8.43;6.27;;;;;;;;;;4952785;28;20250;-88
2022/11/26 19:00:21;;;;;;;26.17;10.73;;;;;;;;;;4955474;28;20191;-89
2022/11/26 19:02:49;;;;;;;19.03;8.63;;;;;;;;;;4967451;28;20218;-88
2022/11/26 19:05:15;;;;;;;22.23;4.87;;;;;;;;;;4956188;28;20197;-89
2022/11/26 19:07:41;;;;;;;14.93;5.90;;;;;;;;;;4967394;28;20193;-89
2022/11/26 19:10:08;;;;;;;8.73;5.97;;;;;;;;;;4953712;28;20220;-89
2022/11/26 19:12:36;;;;;;;15.90;8.27;;;;;;;;;;4958023;28;20206;-89
2022/11/26 19:15:03;;;;;;;15.33;6.53;;;0.80;99.90;;;;;;4968465;28;20194;-87
2022/11/26 19:17:31;;;;;;;11.17;7.40;;;;;;;;;;4961250;28;20199;-89
2022/11/26 19:20:00;;;;;;;17.43;7.90;;;;;;;;;;4967987;28;20178;-89
2022/11/26 19:22:31;;;;;;;12.50;7.17;;;0.80;99.90;;;;;;4961618;28;20222;-89
2022/11/26 19:24:59;;;;;;;24.17;6.10;;;;;;;;;;4953684;28;20191;-89
2022/11/26 19:27:32;;;;;;;9.10;5.27;;;;;;;;;;4943391;28;20591;-90
2022/11/26 19:29:58;;;;;;;17.73;8.23;;;;;;;;;;4968821;28;20182;-86
2022/11/26 19:32:27;;;;;;;13.50;6.73;;;0.80;99.90;;;;;;4965291;28;20694;-87
2022/11/26 19:34:53;;;;;;;8.70;4.93;;;;;;;;;;4959407;28;20680;-87
2022/11/26 19:37:19;;;;;;;27.17;8.17;;;;;;;;;;4956386;28;20210;-87
2022/11/26 19:39:47;;;;;;;10.90;4.37;;;;;;;;;;4969504;28;20245;-86
2022/11/26 19:42:21;;;;;;;13.33;5.93;;;;;;;;;;4964512;28;20191;-89
2022/11/26 19:44:49;;;;;;;15.60;7.20;;;0.80;99.90;;;;;;4972354;28;20193;-88
2022/11/26 19:47:15;;;;;;;10.87;5.97;;;;;;;;;;4954616;28;20189;-89
2022/11/26 19:49:41;;;;;;;17.27;8.00;;;;;;;;;;4959490;28;20223;-87
2022/11/26 19:52:07;;;;;;;33.03;9.00;;;;;;;;;;4959818;28;20206;-90
2022/11/26 19:54:35;;;;;;;10.63;6.40;;;;;;;;;;4963564;28;20190;-89
2022/11/26 19:57:01;;;;;;;15.07;5.30;;;;;;;;;;4971303;28;20185;-89
2022/11/26 19:59:31;;;;;;;12.37;5.70;;;0.90;99.90;;;;;;4965208;28;20237;-87
2022/11/26 20:01:57;;;;;;;19.83;10.83;;;;;;;;;;4973445;28;20178;-87
2022/11/26 20:04:26;;;;;;;17.25;9.73;;;;;;;;;;4972698;28;20517;-87
2022/11/26 20:06:52;;;;;;;9.70;6.40;;;;;;;;;;4988801;28;20204;-87
2022/11/26 20:09:21;;;;;;;12.63;7.83;;;0.90;99.90;;;;;;4972413;28;20513;-88
2022/11/26 20:11:49;;;;;;;25.00;9.17;;;0.90;99.90;;;;;;4974229;28;20246;-89
2022/11/26 20:14:16;;;;;;;13.50;6.30;;;;;;;;;;4957415;28;20190;-89
2022/11/26 20:16:43;;;;;;;15.57;6.70;;;0.80;99.90;;;;;;4968330;28;20185;-90
2022/11/26 20:19:10;;;;;;;15.70;8.10;;;0.80;99.90;;;;;;4973652;28;20260;-88
2022/11/26 20:21:36;;;;;;;23.50;9.57;;;;;;;;;;4968806;28;20778;-89
2022/11/26 20:24:09;;;;;;;21.23;9.47;;;0.80;99.90;;;;;;4968968;28;20179;-87